NORTHEAST SUFFOLK  -  Winter Weather Advisory Winter Weather Advisory     Winter Weather Advisory Winter Weather Advisory        NORTHERN NASSAU  -  Winter Weather Advisory Winter Weather Advisory        NORTHWEST SUFFOLK  -  Winter Weather Advisory Winter Weather Advisory     Winter Weather Advisory Winter Weather Advisory        SOUTHEAST SUFFOLK  -  Winter Weather Advisory Winter Weather Advisory     Winter Weather Advisory Winter Weather Advisory        SOUTHERN NASSAU  -  Winter Weather Advisory Winter Weather Advisory        SOUTHWEST SUFFOLK  -  Winter Weather Advisory Winter Weather Advisory     Winter Weather Advisory Winter Weather Advisory      

Active alerts

Northern Nassau
  Details for Northern Nassau Winter Weather Advisory
Southern Nassau
  Details for Southern Nassau Winter Weather Advisory
Northwest Suffolk
  Details for Northwest Suffolk Winter Weather Advisory  +1 additional alert
Southwest Suffolk
  Details for Southwest Suffolk Winter Weather Advisory  +1 additional alert
Northeast Suffolk
  Details for Northeast Suffolk Winter Weather Advisory  +1 additional alert
Southeast Suffolk
  Details for Southeast Suffolk Winter Weather Advisory  +1 additional alert


WXM80 ListenWXM80 Stop

You find our weather info also at:

UK Metoffice

WeatherCloud

Weather Underground

Northeastern Weather Network

AWEKAS

Citizen Weather Observer Program (CWOP)

HAMweather, WeatherForYou, PWS Weather


Weather Underground History page Text

Daily Summary for November 21, 2016 Units:  English    Metric   Both
« Previous Day
Next Day »
Daily Weekly Monthly Yearly Custom
  High: Low: Average:
Temperature: 39.6 °F 33.8 °F 37.5 °F
Dew Point: 31.1 °F 23.4 °F 25.9 °F
Humidity: 88 % 53 % 63 %
Wind Speed: 17.5 mph 1.2 mph 9.5 mph
Wind Gust: 31.0 mph - -
Wind:- - West
Pressure: 29.80 in 29.52 in -
Precipitation: 0.00 in    
Historical Graphs
 
 
Tabular Data for November 21, 2016
Time Temperature Dew Point Pressure Wind Wind Speed Wind Gust Humidity Rainfall Rate (Hourly)
00:00 35.5 °F 30.5 °F 29.53 in WSW 7.6 mph 13.8 mph 82 % 0.00 in
00:05 35.1 °F 30.5 °F 29.52 in West 9.5 mph 13.0 mph 83 % 0.00 in
00:10 35.0 °F 30.7 °F 29.53 in NW 6.8 mph 16.1 mph 84 % 0.00 in
00:15 34.8 °F 30.8 °F 29.53 in WSW 4.1 mph 11.5 mph 85 % 0.00 in
00:20 34.6 °F 30.8 °F 29.53 in WNW 5.2 mph 13.8 mph 86 % 0.00 in
00:25 34.4 °F 30.6 °F 29.53 in WNW 11.4 mph 16.1 mph 86 % 0.00 in
00:31 34.4 °F 30.6 °F 29.53 in SW 7.5 mph 18.4 mph 86 % 0.00 in
00:36 34.4 °F 30.9 °F 29.53 in SSW 3.9 mph 8.1 mph 87 % 0.00 in
00:41 34.3 °F 30.8 °F 29.53 in WSW 7.2 mph 19.6 mph 87 % 0.00 in
00:46 34.3 °F 31.1 °F 29.53 in West 7.9 mph 8.1 mph 88 % 0.00 in
00:51 34.3 °F 31.1 °F 29.53 in WNW 5.2 mph 11.5 mph 88 % 0.00 in
00:56 34.3 °F 31.1 °F 29.53 in WSW 9.7 mph 17.3 mph 88 % 0.00 in
01:01 34.2 °F 30.7 °F 29.53 in WNW 4.5 mph 10.4 mph 87 % 0.00 in
01:06 34.2 °F 31.0 °F 29.52 in West 3.2 mph 8.1 mph 88 % 0.00 in
01:11 34.2 °F 31.0 °F 29.52 in SW 5.6 mph 10.4 mph 88 % 0.00 in
01:16 34.4 °F 30.9 °F 29.52 in SW 6.6 mph 18.4 mph 87 % 0.00 in
01:22 34.6 °F 30.6 °F 29.53 in West 7.6 mph 12.7 mph 85 % 0.00 in
01:27 34.8 °F 30.2 °F 29.53 in West 11.9 mph 24.0 mph 83 % 0.00 in
01:37 35.3 °F 29.4 °F 29.53 in WNW 7.8 mph 12.7 mph 79 % 0.00 in
01:42 35.4 °F 29.5 °F 29.52 in WNW 7.1 mph 11.5 mph 79 % 0.00 in
01:47 35.4 °F 29.5 °F 29.52 in NW 4.2 mph 9.2 mph 79 % 0.00 in
01:52 35.5 °F 29.3 °F 29.53 in West 9.7 mph 17.0 mph 78 % 0.00 in
01:57 35.5 °F 29.3 °F 29.53 in West 10.2 mph 19.6 mph 78 % 0.00 in
02:02 35.8 °F 29.3 °F 29.53 in NNW 12.7 mph 19.6 mph 77 % 0.00 in
02:07 35.9 °F 29.1 °F 29.53 in WSW 10.0 mph 13.8 mph 76 % 0.00 in
02:13 36.0 °F 28.8 °F 29.53 in WNW 10.6 mph 22.0 mph 75 % 0.00 in
02:18 36.1 °F 29.3 °F 29.54 in West 12.1 mph 23.0 mph 76 % 0.00 in
02:23 36.1 °F 29.6 °F 29.54 in WSW 10.5 mph 19.6 mph 77 % 0.00 in
02:28 36.1 °F 29.9 °F 29.54 in WNW 8.5 mph 18.4 mph 78 % 0.00 in
02:33 36.0 °F 28.8 °F 29.54 in NW 8.3 mph 13.8 mph 75 % 0.00 in
02:38 35.9 °F 28.7 °F 29.55 in SW 12.8 mph 20.7 mph 75 % 0.00 in
02:43 35.9 °F 28.7 °F 29.53 in NW 13.2 mph 26.5 mph 75 % 0.00 in
02:48 36.0 °F 27.8 °F 29.53 in WNW 12.4 mph 27.6 mph 72 % 0.00 in
02:53 36.1 °F 28.3 °F 29.55 in WNW 6.3 mph 11.0 mph 73 % 0.00 in
02:58 36.2 °F 29.4 °F 29.55 in NW 9.6 mph 19.6 mph 76 % 0.00 in
03:04 36.2 °F 29.4 °F 29.56 in WNW 11.9 mph 18.4 mph 76 % 0.00 in
03:09 36.0 °F 29.2 °F 29.55 in NW 10.0 mph 18.4 mph 76 % 0.00 in
03:14 35.7 °F 28.6 °F 29.55 in WNW 8.2 mph 20.7 mph 75 % 0.00 in
03:19 35.6 °F 29.1 °F 29.56 in NW 14.5 mph 17.3 mph 77 % 0.00 in
03:24 35.5 °F 30.2 °F 29.56 in SW 5.7 mph 15.0 mph 81 % 0.00 in
03:29 35.1 °F 30.5 °F 29.57 in West 9.0 mph 20.7 mph 83 % 0.00 in
03:34 34.8 °F 30.5 °F 29.56 in WSW 7.6 mph 16.0 mph 84 % 0.00 in
03:39 34.4 °F 30.1 °F 29.56 in SW 4.1 mph 10.0 mph 84 % 0.00 in
03:44 34.3 °F 30.3 °F 29.56 in WNW 7.9 mph 11.5 mph 85 % 0.00 in
03:49 34.2 °F 30.4 °F 29.56 in SW 10.3 mph 15.0 mph 86 % 0.00 in
03:55 34.1 °F 30.1 °F 29.56 in West 9.4 mph 16.0 mph 85 % 0.00 in
04:00 34.0 °F 30.0 °F 29.55 in WNW 7.7 mph 17.3 mph 85 % 0.00 in
04:05 33.9 °F 29.9 °F 29.56 in WSW 10.4 mph 16.1 mph 85 % 0.00 in
04:10 33.8 °F 29.5 °F 29.56 in WSW 11.3 mph 19.6 mph 84 % 0.00 in
04:15 33.8 °F 29.8 °F 29.56 in SW 12.9 mph 20.7 mph 85 % 0.00 in
04:20 33.9 °F 29.6 °F 29.56 in West 10.0 mph 30.0 mph 84 % 0.00 in
04:25 33.9 °F 29.6 °F 29.56 in West 9.0 mph 20.0 mph 84 % 0.00 in
04:30 33.9 °F 29.9 °F 29.57 in WSW 6.0 mph 18.0 mph 85 % 0.00 in
04:35 33.9 °F 29.9 °F 29.57 in West 9.0 mph 20.0 mph 85 % 0.00 in
04:40 33.9 °F 29.6 °F 29.57 in WSW 9.0 mph 21.0 mph 84 % 0.00 in
04:45 33.8 °F 29.5 °F 29.57 in WSW 8.0 mph 21.0 mph 84 % 0.00 in
04:50 33.8 °F 29.5 °F 29.56 in WSW 7.0 mph 21.0 mph 84 % 0.00 in
04:55 34.0 °F 29.0 °F 29.56 in WSW 9.0 mph 25.0 mph 82 % 0.00 in
05:00 34.1 °F 29.2 °F 29.56 in WNW 9.5 mph 19.0 mph 82 % 0.00 in
05:05 34.2 °F 29.0 °F 29.56 in West 7.7 mph 19.6 mph 81 % 0.00 in
05:10 34.2 °F 29.3 °F 29.57 in NNW 9.2 mph 18.4 mph 82 % 0.00 in
05:15 34.2 °F 29.3 °F 29.57 in West 8.0 mph 11.5 mph 82 % 0.00 in
05:20 34.3 °F 29.4 °F 29.57 in SW 10.2 mph 15.0 mph 82 % 0.00 in
05:25 34.3 °F 28.8 °F 29.57 in West 9.8 mph 16.1 mph 80 % 0.00 in
05:31 34.4 °F 29.2 °F 29.57 in WSW 8.1 mph 19.0 mph 81 % 0.00 in
05:36 34.5 °F 29.0 °F 29.57 in SW 10.6 mph 16.0 mph 80 % 0.00 in
05:41 34.5 °F 28.7 °F 29.57 in WSW 7.2 mph 12.7 mph 79 % 0.00 in
05:46 34.6 °F 28.8 °F 29.57 in NW 7.8 mph 15.0 mph 79 % 0.00 in
05:51 34.7 °F 29.2 °F 29.57 in West 5.0 mph 10.4 mph 80 % 0.00 in
05:56 34.8 °F 29.0 °F 29.57 in West 3.8 mph 17.3 mph 79 % 0.00 in
06:01 34.9 °F 28.4 °F 29.57 in West 2.8 mph 4.6 mph 77 % 0.00 in
06:06 35.1 °F 27.6 °F 29.57 in SSW 3.0 mph 3.5 mph 74 % 0.00 in
06:11 35.3 °F 26.8 °F 29.57 in NW 9.0 mph 16.1 mph 71 % 0.00 in
06:17 35.6 °F 26.4 °F 29.57 in WNW 11.1 mph 16.1 mph 69 % 0.00 in
06:22 35.8 °F 26.6 °F 29.57 in WSW 5.9 mph 13.0 mph 69 % 0.00 in
06:27 36.0 °F 25.7 °F 29.58 in WSW 11.9 mph 17.3 mph 66 % 0.00 in
06:32 36.1 °F 25.8 °F 29.57 in NNW 9.7 mph 18.4 mph 66 % 0.00 in
06:37 36.1 °F 25.5 °F 29.57 in NE 3.4 mph 11.5 mph 65 % 0.00 in
06:42 36.2 °F 25.9 °F 29.57 in NW 7.3 mph 17.3 mph 66 % 0.00 in
06:47 36.2 °F 25.2 °F 29.58 in South 7.7 mph 15.0 mph 64 % 0.00 in
06:52 36.2 °F 24.8 °F 29.58 in SW 11.1 mph 17.3 mph 63 % 0.00 in
06:57 36.2 °F 25.6 °F 29.58 in SW 5.6 mph 12.7 mph 65 % 0.00 in
07:02 36.2 °F 25.6 °F 29.58 in WNW 5.2 mph 18.0 mph 65 % 0.00 in
07:08 36.2 °F 24.8 °F 29.59 in West 5.6 mph 16.1 mph 63 % 0.00 in
07:13 36.3 °F 24.9 °F 29.59 in NW 7.8 mph 11.5 mph 63 % 0.00 in
07:18 36.3 °F 24.5 °F 29.59 in WSW 11.6 mph 13.8 mph 62 % 0.00 in
07:23 36.3 °F 24.5 °F 29.59 in WSW 8.6 mph 17.3 mph 62 % 0.00 in
07:28 36.4 °F 25.4 °F 29.59 in NNW 11.4 mph 17.3 mph 64 % 0.00 in
07:33 36.4 °F 24.6 °F 29.59 in West 12.6 mph 20.0 mph 62 % 0.00 in
07:38 36.4 °F 24.6 °F 29.60 in West 12.5 mph 26.5 mph 62 % 0.00 in
07:43 36.3 °F 24.1 °F 29.59 in SW 13.3 mph 22.0 mph 61 % 0.00 in
07:48 36.4 °F 24.6 °F 29.60 in WNW 8.9 mph 19.0 mph 62 % 0.00 in
07:53 36.4 °F 24.2 °F 29.60 in WSW 13.2 mph 22.0 mph 61 % 0.00 in
07:59 36.5 °F 24.3 °F 29.60 in West 8.6 mph 19.0 mph 61 % 0.00 in
08:04 36.5 °F 24.3 °F 29.61 in NW 5.7 mph 12.7 mph 61 % 0.00 in
08:09 36.6 °F 24.4 °F 29.61 in WSW 9.3 mph 20.7 mph 61 % 0.00 in
08:14 36.6 °F 24.8 °F 29.61 in WNW 10.2 mph 23.0 mph 62 % 0.00 in
08:19 36.7 °F 24.1 °F 29.61 in SW 11.4 mph 19.6 mph 60 % 0.00 in
08:24 36.7 °F 24.1 °F 29.61 in NW 11.3 mph 11.5 mph 60 % 0.00 in
08:29 36.7 °F 23.7 °F 29.62 in West 10.3 mph 17.3 mph 59 % 0.00 in
08:34 36.8 °F 23.8 °F 29.61 in West 11.3 mph 19.6 mph 59 % 0.00 in
08:39 36.8 °F 23.8 °F 29.61 in West 12.3 mph 27.6 mph 59 % 0.00 in
08:44 36.8 °F 23.8 °F 29.61 in NW 11.1 mph 18.4 mph 59 % 0.00 in
08:49 36.9 °F 23.9 °F 29.61 in West 9.9 mph 15.0 mph 59 % 0.00 in
08:54 37.1 °F 24.9 °F 29.61 in WNW 7.2 mph 15.0 mph 61 % 0.00 in
09:00 37.2 °F 25.4 °F 29.61 in West 8.4 mph 16.1 mph 62 % 0.00 in
09:05 37.3 °F 24.7 °F 29.62 in WNW 7.0 mph 13.8 mph 60 % 0.00 in
09:10 37.3 °F 24.3 °F 29.61 in SW 11.7 mph 21.9 mph 59 % 0.00 in
09:15 37.3 °F 23.9 °F 29.62 in WNW 12.4 mph 25.3 mph 58 % 0.00 in
09:20 37.3 °F 23.9 °F 29.62 in SW 12.6 mph 21.0 mph 58 % 0.00 in
09:25 37.3 °F 23.4 °F 29.61 in West 10.0 mph 26.0 mph 57 % 0.00 in
09:30 37.3 °F 24.3 °F 29.62 in WNW 9.0 mph 20.0 mph 59 % 0.00 in
09:35 37.5 °F 24.5 °F 29.62 in West 9.0 mph 20.0 mph 59 % 0.00 in
09:40 37.6 °F 24.6 °F 29.62 in West 9.0 mph 22.0 mph 59 % 0.00 in
09:45 37.8 °F 24.7 °F 29.62 in West 9.0 mph 27.0 mph 59 % 0.00 in
09:50 37.8 °F 23.9 °F 29.62 in West 10.0 mph 25.0 mph 57 % 0.00 in
09:55 37.8 °F 24.3 °F 29.63 in West 8.5 mph 15.0 mph 58 % 0.00 in
10:00 37.9 °F 24.4 °F 29.62 in WNW 8.1 mph 18.4 mph 58 % 0.00 in
10:05 37.8 °F 23.5 °F 29.62 in West 10.0 mph 21.9 mph 56 % 0.00 in
10:10 37.8 °F 23.5 °F 29.62 in WNW 12.0 mph 18.4 mph 56 % 0.00 in
10:15 37.8 °F 24.7 °F 29.62 in West 8.6 mph 16.1 mph 59 % 0.00 in
10:20 37.8 °F 24.7 °F 29.63 in NW 12.6 mph 20.7 mph 59 % 0.00 in
10:26 37.9 °F 24.0 °F 29.62 in West 5.9 mph 12.7 mph 57 % 0.00 in
10:31 37.9 °F 24.0 °F 29.62 in WSW 11.8 mph 18.4 mph 57 % 0.00 in
10:36 38.0 °F 24.1 °F 29.62 in West 12.7 mph 26.5 mph 57 % 0.00 in
10:41 38.0 °F 24.1 °F 29.62 in WNW 9.9 mph 14.0 mph 57 % 0.00 in
10:46 37.9 °F 23.6 °F 29.62 in SW 10.4 mph 26.5 mph 56 % 0.00 in
10:51 38.0 °F 24.1 °F 29.62 in SW 15.7 mph 28.8 mph 57 % 0.00 in
10:56 38.0 °F 23.7 °F 29.62 in WNW 11.1 mph 23.0 mph 56 % 0.00 in
11:01 38.0 °F 24.5 °F 29.62 in SW 11.8 mph 23.0 mph 58 % 0.00 in
11:06 38.0 °F 24.5 °F 29.63 in WNW 12.4 mph 21.9 mph 58 % 0.00 in
11:11 38.0 °F 23.7 °F 29.62 in WSW 13.2 mph 25.3 mph 56 % 0.00 in
11:17 38.0 °F 24.5 °F 29.63 in NW 9.9 mph 16.0 mph 58 % 0.00 in
11:22 38.0 °F 24.1 °F 29.62 in West 8.9 mph 24.2 mph 57 % 0.00 in
11:27 38.0 °F 23.7 °F 29.63 in WNW 9.4 mph 19.6 mph 56 % 0.00 in
11:32 38.0 °F 23.7 °F 29.63 in WSW 13.6 mph 19.6 mph 56 % 0.00 in
11:37 38.0 °F 23.7 °F 29.63 in WNW 9.4 mph 22.0 mph 56 % 0.00 in
11:42 38.0 °F 23.7 °F 29.63 in West 10.2 mph 21.9 mph 56 % 0.00 in
11:47 38.0 °F 24.5 °F 29.63 in WNW 11.0 mph 19.6 mph 58 % 0.00 in
11:52 38.1 °F 24.2 °F 29.63 in WSW 14.8 mph 23.0 mph 57 % 0.00 in
11:57 38.2 °F 24.7 °F 29.62 in West 9.8 mph 16.1 mph 58 % 0.00 in
12:02 38.2 °F 23.4 °F 29.63 in WSW 14.6 mph 23.0 mph 55 % 0.00 in
12:08 38.3 °F 24.4 °F 29.62 in North 10.4 mph 21.9 mph 57 % 0.00 in
12:13 38.4 °F 24.5 °F 29.62 in West 10.4 mph 19.6 mph 57 % 0.00 in
12:18 38.5 °F 25.0 °F 29.63 in West 5.4 mph 15.0 mph 58 % 0.00 in
12:23 38.6 °F 24.7 °F 29.62 in SW 9.0 mph 18.4 mph 57 % 0.00 in
12:28 38.6 °F 24.2 °F 29.63 in WSW 9.3 mph 26.5 mph 56 % 0.00 in
12:38 38.6 °F 24.7 °F 29.63 in West 11.3 mph 19.6 mph 57 % 0.00 in
12:43 38.6 °F 24.7 °F 29.63 in West 5.1 mph 12.7 mph 57 % 0.00 in
12:48 38.6 °F 24.7 °F 29.64 in WSW 11.1 mph 19.6 mph 57 % 0.00 in
12:53 38.6 °F 24.2 °F 29.63 in WSW 7.8 mph 11.5 mph 56 % 0.00 in
12:58 38.6 °F 23.8 °F 29.64 in West 9.0 mph 19.6 mph 55 % 0.00 in
13:03 38.6 °F 24.2 °F 29.64 in WSW 9.1 mph 20.7 mph 56 % 0.00 in
13:09 38.8 °F 25.3 °F 29.64 in NW 10.2 mph 17.0 mph 58 % 0.00 in
13:14 38.9 °F 24.1 °F 29.63 in WNW 13.9 mph 19.6 mph 55 % 0.00 in
13:19 39.0 °F 25.0 °F 29.64 in SSW 1.2 mph 23.0 mph 57 % 0.00 in
13:24 39.1 °F 24.7 °F 29.63 in WNW 15.3 mph 22.0 mph 56 % 0.00 in
13:29 39.1 °F 24.7 °F 29.64 in West 6.1 mph 19.6 mph 56 % 0.00 in
13:34 39.1 °F 24.3 °F 29.64 in WNW 12.5 mph 27.6 mph 55 % 0.00 in
13:39 39.1 °F 25.1 °F 29.64 in WNW 9.7 mph 16.1 mph 57 % 0.00 in
13:44 39.1 °F 24.7 °F 29.64 in NNW 16.5 mph 26.5 mph 56 % 0.00 in
13:49 39.1 °F 24.7 °F 29.63 in West 9.3 mph 16.1 mph 56 % 0.00 in
13:55 39.2 °F 25.6 °F 29.64 in NW 8.0 mph 12.7 mph 58 % 0.00 in
14:00 39.1 °F 24.3 °F 29.64 in WSW 9.5 mph 16.1 mph 55 % 0.00 in
14:05 39.1 °F 23.8 °F 29.64 in NW 9.8 mph 16.1 mph 54 % 0.00 in
14:10 39.1 °F 24.7 °F 29.64 in NW 9.9 mph 23.0 mph 56 % 0.00 in
14:15 39.2 °F 24.4 °F 29.64 in NW 8.5 mph 19.6 mph 55 % 0.00 in
14:20 39.2 °F 24.8 °F 29.64 in WNW 10.1 mph 12.0 mph 56 % 0.00 in
14:25 39.2 °F 24.8 °F 29.64 in WSW 9.1 mph 21.9 mph 56 % 0.00 in
14:30 39.2 °F 24.4 °F 29.64 in WNW 9.9 mph 17.3 mph 55 % 0.00 in
14:35 39.2 °F 25.2 °F 29.65 in WNW 7.0 mph 20.0 mph 57 % 0.00 in
14:40 39.3 °F 24.5 °F 29.65 in West 16.1 mph 23.0 mph 55 % 0.00 in
14:45 39.3 °F 24.0 °F 29.65 in NW 12.9 mph 24.0 mph 54 % 0.00 in
14:50 39.3 °F 24.5 °F 29.66 in WNW 9.5 mph 19.6 mph 55 % 0.00 in
14:55 39.3 °F 24.9 °F 29.65 in West 10.6 mph 18.4 mph 56 % 0.00 in
15:00 39.3 °F 24.9 °F 29.66 in WNW 6.7 mph 13.8 mph 56 % 0.00 in
15:05 39.4 °F 25.0 °F 29.66 in NW 11.6 mph 19.6 mph 56 % 0.00 in
15:10 39.4 °F 25.0 °F 29.66 in WNW 8.6 mph 28.0 mph 56 % 0.00 in
15:16 39.4 °F 25.0 °F 29.66 in West 6.7 mph 16.1 mph 56 % 0.00 in
15:21 39.4 °F 25.0 °F 29.66 in West 6.6 mph 19.6 mph 56 % 0.00 in
15:26 39.4 °F 24.1 °F 29.67 in West 12.0 mph 23.0 mph 54 % 0.00 in
15:31 39.4 °F 25.0 °F 29.67 in SW 8.2 mph 18.0 mph 56 % 0.00 in
15:36 39.3 °F 24.0 °F 29.67 in West 9.4 mph 21.9 mph 54 % 0.00 in
15:41 39.2 °F 23.9 °F 29.67 in WNW 11.4 mph 19.6 mph 54 % 0.00 in
15:46 39.2 °F 23.9 °F 29.68 in NW 6.5 mph 16.1 mph 54 % 0.00 in
15:51 39.2 °F 24.4 °F 29.68 in NW 9.6 mph 16.1 mph 55 % 0.00 in
15:56 39.2 °F 23.5 °F 29.68 in WNW 10.6 mph 20.0 mph 53 % 0.00 in
16:01 39.3 °F 24.9 °F 29.68 in West 8.1 mph 13.8 mph 56 % 0.00 in
16:07 39.3 °F 24.5 °F 29.68 in SW 12.1 mph 19.6 mph 55 % 0.00 in
16:12 39.2 °F 23.9 °F 29.68 in West 15.9 mph 26.5 mph 54 % 0.00 in
16:17 39.1 °F 23.8 °F 29.68 in WNW 11.0 mph 26.5 mph 54 % 0.00 in
16:22 39.1 °F 24.7 °F 29.68 in West 10.7 mph 20.0 mph 56 % 0.00 in
16:27 39.1 °F 25.1 °F 29.69 in West 4.8 mph 18.4 mph 57 % 0.00 in
16:32 39.1 °F 25.1 °F 29.69 in WNW 8.2 mph 15.0 mph 57 % 0.00 in
16:37 39.2 °F 25.2 °F 29.69 in NW 4.7 mph 11.5 mph 57 % 0.00 in
16:42 39.2 °F 24.4 °F 29.69 in WNW 12.5 mph 26.5 mph 55 % 0.00 in
16:47 39.2 °F 24.4 °F 29.69 in WSW 10.0 mph 19.6 mph 55 % 0.00 in
16:52 39.2 °F 24.8 °F 29.70 in NW 13.9 mph 24.2 mph 56 % 0.00 in
16:57 39.2 °F 23.9 °F 29.70 in WSW 11.0 mph 19.0 mph 54 % 0.00 in
17:02 39.2 °F 23.9 °F 29.69 in WNW 10.6 mph 26.5 mph 54 % 0.00 in
17:08 39.2 °F 23.5 °F 29.70 in NNW 12.6 mph 26.5 mph 53 % 0.00 in
17:13 39.2 °F 23.9 °F 29.70 in NW 9.7 mph 17.3 mph 54 % 0.00 in
17:18 39.2 °F 24.4 °F 29.70 in WNW 9.3 mph 18.4 mph 55 % 0.00 in
17:23 39.2 °F 24.4 °F 29.71 in NW 13.6 mph 21.9 mph 55 % 0.00 in
17:28 39.3 °F 24.9 °F 29.71 in WSW 6.7 mph 12.7 mph 56 % 0.00 in
17:33 39.3 °F 24.9 °F 29.71 in SSW 9.6 mph 17.3 mph 56 % 0.00 in
17:38 39.3 °F 24.5 °F 29.71 in NW 10.8 mph 18.0 mph 55 % 0.00 in
17:43 39.3 °F 24.5 °F 29.71 in West 13.2 mph 23.0 mph 55 % 0.00 in
17:48 39.3 °F 24.5 °F 29.71 in West 8.2 mph 16.1 mph 55 % 0.00 in
17:53 39.4 °F 25.0 °F 29.71 in WNW 13.9 mph 24.0 mph 56 % 0.00 in
17:59 39.4 °F 24.6 °F 29.71 in West 10.8 mph 21.0 mph 55 % 0.00 in
18:04 39.4 °F 24.1 °F 29.72 in WSW 12.5 mph 26.5 mph 54 % 0.00 in
18:09 39.4 °F 24.6 °F 29.72 in WSW 8.4 mph 17.0 mph 55 % 0.00 in
18:14 39.3 °F 24.5 °F 29.73 in WNW 11.2 mph 21.9 mph 55 % 0.00 in
18:19 39.3 °F 24.5 °F 29.72 in West 14.6 mph 21.9 mph 55 % 0.00 in
18:24 39.3 °F 24.0 °F 29.72 in NW 10.3 mph 18.0 mph 54 % 0.00 in
18:34 39.4 °F 24.6 °F 29.72 in NNW 9.7 mph 19.6 mph 55 % 0.00 in
18:39 39.3 °F 23.6 °F 29.72 in West 9.8 mph 23.0 mph 53 % 0.00 in
18:44 39.3 °F 23.6 °F 29.72 in NW 13.7 mph 20.7 mph 53 % 0.00 in
18:50 39.4 °F 24.6 °F 29.73 in West 10.8 mph 19.6 mph 55 % 0.00 in
18:55 39.3 °F 24.0 °F 29.73 in WSW 14.8 mph 23.0 mph 54 % 0.00 in
19:00 39.4 °F 25.0 °F 29.73 in NNW 8.1 mph 16.1 mph 56 % 0.00 in
19:05 39.4 °F 25.4 °F 29.73 in West 8.6 mph 15.0 mph 57 % 0.00 in
19:10 39.4 °F 24.1 °F 29.73 in WNW 8.2 mph 17.3 mph 54 % 0.00 in
19:15 39.5 °F 25.1 °F 29.73 in WSW 7.2 mph 17.0 mph 56 % 0.00 in
19:20 39.4 °F 24.1 °F 29.73 in WSW 7.8 mph 15.0 mph 54 % 0.00 in
19:25 39.4 °F 24.1 °F 29.74 in West 17.5 mph 24.2 mph 54 % 0.00 in
19:30 39.5 °F 24.2 °F 29.74 in WSW 8.4 mph 17.3 mph 54 % 0.00 in
19:35 39.4 °F 24.1 °F 29.73 in WSW 9.6 mph 18.0 mph 54 % 0.00 in
19:40 39.5 °F 24.7 °F 29.74 in West 7.1 mph 20.0 mph 55 % 0.00 in
19:46 39.5 °F 23.8 °F 29.74 in North 8.4 mph 17.3 mph 53 % 0.00 in
19:51 39.5 °F 24.2 °F 29.74 in WNW 9.8 mph 19.6 mph 54 % 0.00 in
19:56 39.5 °F 23.8 °F 29.74 in SW 12.0 mph 23.0 mph 53 % 0.00 in
20:01 39.5 °F 24.2 °F 29.74 in West 6.9 mph 28.8 mph 54 % 0.00 in
20:06 39.5 °F 24.2 °F 29.74 in West 14.2 mph 20.7 mph 54 % 0.00 in
20:11 39.6 °F 24.7 °F 29.75 in NW 5.4 mph 17.3 mph 55 % 0.00 in
20:16 39.5 °F 23.8 °F 29.75 in WNW 10.1 mph 25.0 mph 53 % 0.00 in
20:21 39.5 °F 24.7 °F 29.75 in SSE 12.2 mph 18.4 mph 55 % 0.00 in
20:26 39.5 °F 23.8 °F 29.75 in NNW 11.5 mph 18.4 mph 53 % 0.00 in
20:31 39.5 °F 25.5 °F 29.75 in NNW 11.1 mph 16.1 mph 57 % 0.00 in
20:37 39.5 °F 24.7 °F 29.75 in WNW 9.1 mph 12.7 mph 55 % 0.00 in
20:42 39.4 °F 24.6 °F 29.75 in WSW 7.9 mph 18.4 mph 55 % 0.00 in
20:47 39.4 °F 25.0 °F 29.75 in WSW 7.7 mph 20.7 mph 56 % 0.00 in
20:52 39.3 °F 24.0 °F 29.75 in NW 7.7 mph 19.6 mph 54 % 0.00 in
20:57 39.3 °F 24.9 °F 29.75 in WNW 13.9 mph 26.5 mph 56 % 0.00 in
21:02 39.3 °F 24.9 °F 29.75 in West 10.0 mph 16.1 mph 56 % 0.00 in
21:07 39.2 °F 24.8 °F 29.76 in NNW 9.0 mph 24.2 mph 56 % 0.00 in
21:12 39.2 °F 24.4 °F 29.75 in WSW 8.4 mph 16.0 mph 55 % 0.00 in
21:17 39.2 °F 24.4 °F 29.75 in WNW 10.3 mph 21.0 mph 55 % 0.00 in
21:22 39.1 °F 23.8 °F 29.76 in WNW 14.9 mph 20.0 mph 54 % 0.00 in
21:28 39.1 °F 23.8 °F 29.76 in West 10.0 mph 24.2 mph 54 % 0.00 in
21:33 39.1 °F 24.3 °F 29.75 in NW 10.6 mph 20.7 mph 55 % 0.00 in
21:38 39.0 °F 23.7 °F 29.76 in NW 7.6 mph 12.7 mph 54 % 0.00 in
21:43 39.0 °F 25.0 °F 29.76 in SW 8.8 mph 18.4 mph 57 % 0.00 in
21:48 39.0 °F 24.6 °F 29.77 in WSW 13.3 mph 29.0 mph 56 % 0.00 in
21:53 38.9 °F 24.5 °F 29.77 in SW 9.6 mph 15.0 mph 56 % 0.00 in
21:58 38.9 °F 24.9 °F 29.77 in WNW 12.0 mph 20.7 mph 57 % 0.00 in
22:03 38.9 °F 24.9 °F 29.77 in West 13.0 mph 19.6 mph 57 % 0.00 in
22:08 38.8 °F 25.3 °F 29.77 in WNW 7.7 mph 17.3 mph 58 % 0.00 in
22:13 38.9 °F 25.8 °F 29.77 in NW 9.1 mph 15.0 mph 59 % 0.00 in
22:18 38.9 °F 24.9 °F 29.77 in SW 8.1 mph 20.7 mph 57 % 0.00 in
22:24 38.8 °F 24.9 °F 29.77 in WSW 9.2 mph 21.9 mph 57 % 0.00 in
22:29 38.8 °F 25.3 °F 29.77 in WNW 2.7 mph 11.5 mph 58 % 0.00 in
22:34 38.8 °F 24.9 °F 29.77 in WSW 9.2 mph 13.8 mph 57 % 0.00 in
22:39 38.7 °F 24.8 °F 29.77 in NW 8.8 mph 17.3 mph 57 % 0.00 in
22:44 38.7 °F 24.8 °F 29.77 in NNW 9.9 mph 16.1 mph 57 % 0.00 in
22:49 38.8 °F 25.3 °F 29.77 in WNW 7.2 mph 19.6 mph 58 % 0.00 in
22:54 38.8 °F 25.7 °F 29.77 in WNW 11.3 mph 20.7 mph 59 % 0.00 in
22:59 38.8 °F 25.7 °F 29.78 in West 9.4 mph 16.1 mph 59 % 0.00 in
23:04 38.8 °F 25.3 °F 29.78 in West 9.6 mph 17.3 mph 58 % 0.00 in
23:09 38.8 °F 25.3 °F 29.78 in West 11.0 mph 25.3 mph 58 % 0.00 in
23:15 38.8 °F 25.3 °F 29.78 in WNW 7.6 mph 16.1 mph 58 % 0.00 in
23:20 38.8 °F 25.3 °F 29.78 in NNW 7.5 mph 12.7 mph 58 % 0.00 in
23:25 38.7 °F 24.8 °F 29.78 in WNW 6.2 mph 24.2 mph 57 % 0.00 in
23:35 38.6 °F 24.7 °F 29.79 in West 11.2 mph 17.3 mph 57 % 0.00 in
23:45 38.6 °F 25.1 °F 29.80 in WNW 9.0 mph 25.0 mph 58 % 0.00 in
23:50 38.6 °F 25.1 °F 29.80 in WNW 8.3 mph 11.5 mph 58 % 0.00 in
23:55 38.6 °F 24.2 °F 29.79 in WNW 8.0 mph 31.0 mph 56 % 0.00 in
Crab Meadow Weather
Compliments of Weather Underground - 3 mb

Script developed by  Jim McMurry - jmcmurry@mwt.net Adapted for the template by  Wim van der Kuil - Leuven-Template.eu

Weather Terms: Heavy Sleet Warning - Accumulations of 1/2 inch or more of sleet.